sensor_id;sensor_type;location;lat;lon;timestamp;P1;durP1;ratioP1;P2;durP2;ratioP2
10232;SDS011;5161;48.174;11.756;2023-05-10T00:00:12;248.03;;;49.80;;
10232;SDS011;5161;48.174;11.756;2023-05-10T00:02:38;185.63;;;37.63;;
10232;SDS011;5161;48.174;11.756;2023-05-10T00:05:04;197.77;;;39.93;;
10232;SDS011;5161;48.174;11.756;2023-05-10T00:07:30;137.37;;;34.47;;
10232;SDS011;5161;48.174;11.756;2023-05-10T00:09:56;108.40;;;25.67;;
10232;SDS011;5161;48.174;11.756;2023-05-10T00:12:21;95.77;;;28.13;;
10232;SDS011;5161;48.174;11.756;2023-05-10T00:14:47;80.50;;;26.10;;
10232;SDS011;5161;48.174;11.756;2023-05-10T00:17:12;104.97;;;27.90;;
10232;SDS011;5161;48.174;11.756;2023-05-10T00:19:38;168.60;;;38.10;;
10232;SDS011;5161;48.174;11.756;2023-05-10T00:22:04;193.37;;;43.17;;
10232;SDS011;5161;48.174;11.756;2023-05-10T00:24:29;256.37;;;54.53;;
10232;SDS011;5161;48.174;11.756;2023-05-10T00:26:55;189.97;;;43.00;;
10232;SDS011;5161;48.174;11.756;2023-05-10T00:29:20;407.07;;;65.13;;
10232;SDS011;5161;48.174;11.756;2023-05-10T00:31:46;332.00;;;59.43;;
10232;SDS011;5161;48.174;11.756;2023-05-10T00:34:11;317.03;;;63.17;;
10232;SDS011;5161;48.174;11.756;2023-05-10T00:36:37;361.43;;;63.60;;
10232;SDS011;5161;48.174;11.756;2023-05-10T00:39:03;293.13;;;56.07;;
10232;SDS011;5161;48.174;11.756;2023-05-10T00:41:28;375.80;;;60.60;;
10232;SDS011;5161;48.174;11.756;2023-05-10T00:43:57;347.73;;;62.07;;
10232;SDS011;5161;48.174;11.756;2023-05-10T00:46:23;398.90;;;65.70;;
10232;SDS011;5161;48.174;11.756;2023-05-10T00:48:49;395.27;;;66.43;;
10232;SDS011;5161;48.174;11.756;2023-05-10T00:51:15;356.17;;;63.50;;
10232;SDS011;5161;48.174;11.756;2023-05-10T00:53:41;372.50;;;64.80;;
10232;SDS011;5161;48.174;11.756;2023-05-10T00:56:06;333.07;;;60.47;;
10232;SDS011;5161;48.174;11.756;2023-05-10T00:58:32;318.30;;;59.10;;
10232;SDS011;5161;48.174;11.756;2023-05-10T01:00:58;358.10;;;61.83;;
10232;SDS011;5161;48.174;11.756;2023-05-10T01:03:25;288.90;;;56.17;;
10232;SDS011;5161;48.174;11.756;2023-05-10T01:05:51;324.03;;;61.17;;
10232;SDS011;5161;48.174;11.756;2023-05-10T01:08:17;398.87;;;67.47;;
10232;SDS011;5161;48.174;11.756;2023-05-10T01:10:42;352.23;;;61.70;;
10232;SDS011;5161;48.174;11.756;2023-05-10T01:13:09;362.40;;;64.33;;
10232;SDS011;5161;48.174;11.756;2023-05-10T01:15:36;346.23;;;61.17;;
10232;SDS011;5161;48.174;11.756;2023-05-10T01:18:01;322.53;;;56.83;;
10232;SDS011;5161;48.174;11.756;2023-05-10T01:20:29;298.43;;;61.43;;
10232;SDS011;5161;48.174;11.756;2023-05-10T01:25:59;264.97;;;52.70;;
10232;SDS011;5161;48.174;11.756;2023-05-10T01:31:30;164.60;;;36.90;;
10232;SDS011;5161;48.174;11.756;2023-05-10T01:36:35;108.33;;;30.67;;
10232;SDS011;5161;48.174;11.756;2023-05-10T01:47:15;153.30;;;39.40;;
10232;SDS011;5161;48.174;11.756;2023-05-10T01:49:50;194.27;;;44.87;;
10232;SDS011;5161;48.174;11.756;2023-05-10T01:52:18;207.53;;;45.67;;
10232;SDS011;5161;48.174;11.756;2023-05-10T01:54:59;136.67;;;35.30;;
10232;SDS011;5161;48.174;11.756;2023-05-10T01:57:27;205.10;;;46.63;;
10232;SDS011;5161;48.174;11.756;2023-05-10T01:59:59;221.47;;;49.00;;
10232;SDS011;5161;48.174;11.756;2023-05-10T02:02:28;221.60;;;49.93;;
10232;SDS011;5161;48.174;11.756;2023-05-10T02:04:58;215.70;;;47.43;;
10232;SDS011;5161;48.174;11.756;2023-05-10T02:07:24;177.80;;;44.00;;
10232;SDS011;5161;48.174;11.756;2023-05-10T02:09:53;167.37;;;36.47;;
10232;SDS011;5161;48.174;11.756;2023-05-10T02:12:20;165.50;;;40.53;;
10232;SDS011;5161;48.174;11.756;2023-05-10T02:14:47;198.53;;;48.03;;
10232;SDS011;5161;48.174;11.756;2023-05-10T02:17:13;207.10;;;46.67;;
10232;SDS011;5161;48.174;11.756;2023-05-10T02:19:40;259.13;;;55.20;;
10232;SDS011;5161;48.174;11.756;2023-05-10T02:22:07;266.57;;;52.33;;
10232;SDS011;5161;48.174;11.756;2023-05-10T02:24:33;354.17;;;64.33;;
10232;SDS011;5161;48.174;11.756;2023-05-10T02:27:01;326.90;;;60.33;;
10232;SDS011;5161;48.174;11.756;2023-05-10T02:29:28;254.30;;;53.60;;
10232;SDS011;5161;48.174;11.756;2023-05-10T02:31:56;213.33;;;48.13;;
10232;SDS011;5161;48.174;11.756;2023-05-10T02:34:23;179.23;;;39.43;;
10232;SDS011;5161;48.174;11.756;2023-05-10T02:36:51;138.23;;;35.73;;
10232;SDS011;5161;48.174;11.756;2023-05-10T02:39:18;132.93;;;36.70;;
10232;SDS011;5161;48.174;11.756;2023-05-10T02:41:45;199.80;;;43.50;;
10232;SDS011;5161;48.174;11.756;2023-05-10T02:44:13;158.37;;;39.87;;
10232;SDS011;5161;48.174;11.756;2023-05-10T02:46:42;133.17;;;33.87;;
10232;SDS011;5161;48.174;11.756;2023-05-10T02:49:08;144.87;;;34.07;;
10232;SDS011;5161;48.174;11.756;2023-05-10T02:51:34;122.37;;;35.90;;
10232;SDS011;5161;48.174;11.756;2023-05-10T02:54:04;110.93;;;35.67;;
10232;SDS011;5161;48.174;11.756;2023-05-10T02:56:35;104.87;;;31.27;;
10232;SDS011;5161;48.174;11.756;2023-05-10T02:59:05;103.57;;;28.83;;
10232;SDS011;5161;48.174;11.756;2023-05-10T03:01:31;95.43;;;29.17;;
10232;SDS011;5161;48.174;11.756;2023-05-10T03:03:57;153.43;;;38.87;;
10232;SDS011;5161;48.174;11.756;2023-05-10T03:06:22;114.90;;;28.53;;
10232;SDS011;5161;48.174;11.756;2023-05-10T03:08:48;90.53;;;27.90;;
10232;SDS011;5161;48.174;11.756;2023-05-10T03:17:04;71.37;;;21.50;;
10232;SDS011;5161;48.174;11.756;2023-05-10T03:19:47;53.00;;;17.67;;
10232;SDS011;5161;48.174;11.756;2023-05-10T03:22:21;55.53;;;18.77;;
10232;SDS011;5161;48.174;11.756;2023-05-10T03:24:50;75.90;;;24.47;;
10232;SDS011;5161;48.174;11.756;2023-05-10T03:27:19;82.77;;;22.10;;
10232;SDS011;5161;48.174;11.756;2023-05-10T03:29:47;105.23;;;27.47;;
10232;SDS011;5161;48.174;11.756;2023-05-10T03:32:13;49.83;;;19.60;;
10232;SDS011;5161;48.174;11.756;2023-05-10T03:34:42;62.07;;;21.23;;
10232;SDS011;5161;48.174;11.756;2023-05-10T03:37:08;57.47;;;19.07;;
10232;SDS011;5161;48.174;11.756;2023-05-10T03:39:34;81.00;;;24.87;;
10232;SDS011;5161;48.174;11.756;2023-05-10T03:41:59;72.33;;;24.17;;
10232;SDS011;5161;48.174;11.756;2023-05-10T03:44:25;51.90;;;17.53;;
10232;SDS011;5161;48.174;11.756;2023-05-10T03:46:50;71.53;;;23.57;;
10232;SDS011;5161;48.174;11.756;2023-05-10T03:49:16;51.57;;;16.97;;
10232;SDS011;5161;48.174;11.756;2023-05-10T03:51:41;67.20;;;18.93;;
10232;SDS011;5161;48.174;11.756;2023-05-10T03:54:07;58.57;;;20.77;;
10232;SDS011;5161;48.174;11.756;2023-05-10T03:56:34;21.13;;;8.10;;
10232;SDS011;5161;48.174;11.756;2023-05-10T03:58:59;19.30;;;8.63;;
10232;SDS011;5161;48.174;11.756;2023-05-10T04:01:25;34.77;;;10.90;;
10232;SDS011;5161;48.174;11.756;2023-05-10T04:03:51;15.17;;;7.13;;
10232;SDS011;5161;48.174;11.756;2023-05-10T04:06:16;14.10;;;6.87;;
10232;SDS011;5161;48.174;11.756;2023-05-10T04:08:42;14.53;;;7.23;;
10232;SDS011;5161;48.174;11.756;2023-05-10T04:11:08;12.57;;;6.97;;
10232;SDS011;5161;48.174;11.756;2023-05-10T04:13:35;8.83;;;4.97;;
10232;SDS011;5161;48.174;11.756;2023-05-10T04:16:01;2.73;;;2.53;;
10232;SDS011;5161;48.174;11.756;2023-05-10T04:18:27;9.30;;;6.83;;
10232;SDS011;5161;48.174;11.756;2023-05-10T04:20:52;27.10;;;8.27;;
10232;SDS011;5161;48.174;11.756;2023-05-10T04:23:18;6.33;;;4.20;;
10232;SDS011;5161;48.174;11.756;2023-05-10T04:25:43;14.80;;;5.43;;
10232;SDS011;5161;48.174;11.756;2023-05-10T04:28:09;1.80;;;1.70;;
10232;SDS011;5161;48.174;11.756;2023-05-10T04:30:35;7.60;;;4.57;;
10232;SDS011;5161;48.174;11.756;2023-05-10T04:33:00;9.47;;;4.40;;
10232;SDS011;5161;48.174;11.756;2023-05-10T04:35:29;6.47;;;4.13;;
10232;SDS011;5161;48.174;11.756;2023-05-10T04:37:54;7.87;;;5.67;;
10232;SDS011;5161;48.174;11.756;2023-05-10T04:40:20;15.67;;;7.20;;
10232;SDS011;5161;48.174;11.756;2023-05-10T04:42:46;11.27;;;5.07;;
10232;SDS011;5161;48.174;11.756;2023-05-10T04:45:11;5.10;;;3.37;;
10232;SDS011;5161;48.174;11.756;2023-05-10T04:47:39;4.53;;;2.90;;
10232;SDS011;5161;48.174;11.756;2023-05-10T04:50:05;9.17;;;5.13;;
10232;SDS011;5161;48.174;11.756;2023-05-10T04:52:31;4.10;;;2.73;;
10232;SDS011;5161;48.174;11.756;2023-05-10T04:54:56;1.23;;;1.20;;
10232;SDS011;5161;48.174;11.756;2023-05-10T04:57:22;3.00;;;2.37;;
10232;SDS011;5161;48.174;11.756;2023-05-10T04:59:48;3.57;;;2.13;;
10232;SDS011;5161;48.174;11.756;2023-05-10T05:02:13;1.87;;;1.77;;
10232;SDS011;5161;48.174;11.756;2023-05-10T05:04:39;1.00;;;1.00;;
10232;SDS011;5161;48.174;11.756;2023-05-10T05:07:04;1.57;;;1.50;;
10232;SDS011;5161;48.174;11.756;2023-05-10T05:09:30;8.43;;;3.00;;
10232;SDS011;5161;48.174;11.756;2023-05-10T05:11:57;2.07;;;1.87;;
10232;SDS011;5161;48.174;11.756;2023-05-10T05:14:22;682.33;;;87.63;;
10232;SDS011;5161;48.174;11.756;2023-05-10T05:16:50;265.13;;;49.77;;
10232;SDS011;5161;48.174;11.756;2023-05-10T05:19:16;75.77;;;23.77;;
10232;SDS011;5161;48.174;11.756;2023-05-10T05:21:41;33.47;;;15.33;;
10232;SDS011;5161;48.174;11.756;2023-05-10T05:24:07;37.43;;;13.03;;
10232;SDS011;5161;48.174;11.756;2023-05-10T05:26:32;36.13;;;12.13;;
10232;SDS011;5161;48.174;11.756;2023-05-10T05:28:58;17.40;;;7.73;;
10232;SDS011;5161;48.174;11.756;2023-05-10T05:31:24;27.10;;;10.47;;
10232;SDS011;5161;48.174;11.756;2023-05-10T05:33:50;20.30;;;8.97;;
10232;SDS011;5161;48.174;11.756;2023-05-10T05:36:15;85.37;;;24.50;;
10232;SDS011;5161;48.174;11.756;2023-05-10T05:38:41;103.73;;;26.93;;
10232;SDS011;5161;48.174;11.756;2023-05-10T05:41:07;31.77;;;15.57;;
10232;SDS011;5161;48.174;11.756;2023-05-10T05:43:33;29.67;;;10.60;;
10232;SDS011;5161;48.174;11.756;2023-05-10T05:45:59;88.03;;;24.50;;
10232;SDS011;5161;48.174;11.756;2023-05-10T05:48:24;153.20;;;35.97;;
10232;SDS011;5161;48.174;11.756;2023-05-10T05:50:50;234.13;;;44.60;;
10232;SDS011;5161;48.174;11.756;2023-05-10T05:53:18;240.03;;;46.77;;
10232;SDS011;5161;48.174;11.756;2023-05-10T05:55:54;281.70;;;53.10;;
10232;SDS011;5161;48.174;11.756;2023-05-10T05:58:21;169.47;;;43.50;;
10232;SDS011;5161;48.174;11.756;2023-05-10T06:00:47;325.17;;;57.80;;
10232;SDS011;5161;48.174;11.756;2023-05-10T06:03:13;375.97;;;63.33;;
10232;SDS011;5161;48.174;11.756;2023-05-10T06:05:38;321.00;;;56.30;;
10232;SDS011;5161;48.174;11.756;2023-05-10T06:08:04;273.77;;;55.07;;
10232;SDS011;5161;48.174;11.756;2023-05-10T06:10:30;275.47;;;52.43;;
10232;SDS011;5161;48.174;11.756;2023-05-10T06:12:55;287.37;;;54.80;;
10232;SDS011;5161;48.174;11.756;2023-05-10T06:15:21;345.53;;;59.80;;
10232;SDS011;5161;48.174;11.756;2023-05-10T06:17:47;345.23;;;58.23;;
10232;SDS011;5161;48.174;11.756;2023-05-10T06:20:14;305.93;;;57.80;;
10232;SDS011;5161;48.174;11.756;2023-05-10T06:22:40;287.83;;;55.87;;
10232;SDS011;5161;48.174;11.756;2023-05-10T06:25:06;240.73;;;50.03;;
10232;SDS011;5161;48.174;11.756;2023-05-10T06:27:32;232.83;;;48.07;;
10232;SDS011;5161;48.174;11.756;2023-05-10T06:29:58;274.80;;;52.17;;
10232;SDS011;5161;48.174;11.756;2023-05-10T06:32:23;331.33;;;55.10;;
10232;SDS011;5161;48.174;11.756;2023-05-10T06:34:49;342.80;;;60.47;;
10232;SDS011;5161;48.174;11.756;2023-05-10T06:37:15;455.70;;;70.83;;
10232;SDS011;5161;48.174;11.756;2023-05-10T06:39:40;466.23;;;72.90;;
10232;SDS011;5161;48.174;11.756;2023-05-10T06:42:06;461.43;;;70.10;;
10232;SDS011;5161;48.174;11.756;2023-05-10T06:44:31;396.97;;;65.60;;
10232;SDS011;5161;48.174;11.756;2023-05-10T06:46:57;358.90;;;59.50;;
10232;SDS011;5161;48.174;11.756;2023-05-10T06:49:23;271.67;;;50.87;;
10232;SDS011;5161;48.174;11.756;2023-05-10T06:51:48;271.83;;;52.73;;
10232;SDS011;5161;48.174;11.756;2023-05-10T06:54:14;277.87;;;52.80;;
10232;SDS011;5161;48.174;11.756;2023-05-10T06:56:39;242.40;;;45.57;;
10232;SDS011;5161;48.174;11.756;2023-05-10T06:59:05;196.27;;;40.53;;
10232;SDS011;5161;48.174;11.756;2023-05-10T07:01:31;208.80;;;43.40;;
10232;SDS011;5161;48.174;11.756;2023-05-10T07:03:57;325.70;;;56.70;;
10232;SDS011;5161;48.174;11.756;2023-05-10T07:06:22;426.63;;;67.90;;
10232;SDS011;5161;48.174;11.756;2023-05-10T07:08:48;517.73;;;80.47;;
10232;SDS011;5161;48.174;11.756;2023-05-10T07:11:13;406.00;;;66.47;;
10232;SDS011;5161;48.174;11.756;2023-05-10T07:13:39;526.00;;;78.10;;
10232;SDS011;5161;48.174;11.756;2023-05-10T07:16:08;400.10;;;67.13;;
10232;SDS011;5161;48.174;11.756;2023-05-10T07:18:34;347.80;;;60.20;;
10232;SDS011;5161;48.174;11.756;2023-05-10T07:21:00;344.47;;;61.33;;
10232;SDS011;5161;48.174;11.756;2023-05-10T07:23:26;539.73;;;77.67;;
10232;SDS011;5161;48.174;11.756;2023-05-10T07:25:52;485.10;;;71.90;;
10232;SDS011;5161;48.174;11.756;2023-05-10T07:28:18;377.73;;;65.60;;
10232;SDS011;5161;48.174;11.756;2023-05-10T07:30:44;480.77;;;72.97;;
10232;SDS011;5161;48.174;11.756;2023-05-10T07:33:10;514.53;;;76.47;;
10232;SDS011;5161;48.174;11.756;2023-05-10T07:35:38;517.27;;;74.20;;
10232;SDS011;5161;48.174;11.756;2023-05-10T07:38:04;463.97;;;71.60;;
10232;SDS011;5161;48.174;11.756;2023-05-10T07:40:30;540.53;;;76.30;;
10232;SDS011;5161;48.174;11.756;2023-05-10T07:42:55;621.80;;;87.17;;
10232;SDS011;5161;48.174;11.756;2023-05-10T07:45:21;684.53;;;91.57;;
10232;SDS011;5161;48.174;11.756;2023-05-10T07:47:47;618.10;;;88.17;;
10232;SDS011;5161;48.174;11.756;2023-05-10T07:50:13;596.73;;;84.97;;
10232;SDS011;5161;48.174;11.756;2023-05-10T07:52:39;773.43;;;102.83;;
10232;SDS011;5161;48.174;11.756;2023-05-10T07:55:05;718.03;;;96.07;;
10232;SDS011;5161;48.174;11.756;2023-05-10T07:57:32;756.63;;;99.30;;
10232;SDS011;5161;48.174;11.756;2023-05-10T08:00:01;776.80;;;103.47;;
10232;SDS011;5161;48.174;11.756;2023-05-10T08:02:27;788.87;;;106.60;;
10232;SDS011;5161;48.174;11.756;2023-05-10T08:04:52;811.03;;;104.87;;
10232;SDS011;5161;48.174;11.756;2023-05-10T08:07:18;797.80;;;105.70;;
10232;SDS011;5161;48.174;11.756;2023-05-10T08:09:43;781.07;;;102.33;;
10232;SDS011;5161;48.174;11.756;2023-05-10T08:12:09;828.63;;;104.40;;
10232;SDS011;5161;48.174;11.756;2023-05-10T08:14:34;832.17;;;107.27;;
10232;SDS011;5161;48.174;11.756;2023-05-10T08:17:01;814.53;;;104.07;;
10232;SDS011;5161;48.174;11.756;2023-05-10T08:19:28;829.57;;;101.77;;
10232;SDS011;5161;48.174;11.756;2023-05-10T08:21:54;852.10;;;102.87;;
10232;SDS011;5161;48.174;11.756;2023-05-10T08:24:20;838.00;;;104.47;;
10232;SDS011;5161;48.174;11.756;2023-05-10T08:26:46;848.93;;;102.93;;
10232;SDS011;5161;48.174;11.756;2023-05-10T08:29:13;856.10;;;95.17;;
10232;SDS011;5161;48.174;11.756;2023-05-10T08:31:39;887.67;;;106.67;;
10232;SDS011;5161;48.174;11.756;2023-05-10T08:34:04;856.73;;;100.27;;
10232;SDS011;5161;48.174;11.756;2023-05-10T08:36:30;865.27;;;99.97;;
10232;SDS011;5161;48.174;11.756;2023-05-10T08:38:57;860.53;;;104.33;;
10232;SDS011;5161;48.174;11.756;2023-05-10T08:41:23;867.90;;;101.20;;
10232;SDS011;5161;48.174;11.756;2023-05-10T08:43:50;893.43;;;111.10;;
10232;SDS011;5161;48.174;11.756;2023-05-10T08:46:17;884.77;;;102.27;;
10232;SDS011;5161;48.174;11.756;2023-05-10T08:48:45;942.67;;;111.60;;
10232;SDS011;5161;48.174;11.756;2023-05-10T08:51:13;929.47;;;104.10;;
10232;SDS011;5161;48.174;11.756;2023-05-10T08:53:39;913.73;;;99.73;;
10232;SDS011;5161;48.174;11.756;2023-05-10T08:56:05;940.10;;;106.17;;
10232;SDS011;5161;48.174;11.756;2023-05-10T08:58:31;950.33;;;104.70;;
10232;SDS011;5161;48.174;11.756;2023-05-10T09:00:57;922.40;;;101.40;;
10232;SDS011;5161;48.174;11.756;2023-05-10T09:03:24;956.00;;;104.80;;
10232;SDS011;5161;48.174;11.756;2023-05-10T09:05:49;909.60;;;97.83;;
10232;SDS011;5161;48.174;11.756;2023-05-10T09:08:15;940.87;;;98.93;;
10232;SDS011;5161;48.174;11.756;2023-05-10T09:10:42;960.53;;;105.00;;
10232;SDS011;5161;48.174;11.756;2023-05-10T09:13:12;970.60;;;107.93;;
10232;SDS011;5161;48.174;11.756;2023-05-10T09:15:40;1016.73;;;120.40;;
10232;SDS011;5161;48.174;11.756;2023-05-10T09:18:06;663.00;;;169.83;;
10232;SDS011;5161;48.174;11.756;2023-05-10T09:20:31;1061.80;;;125.03;;
10232;SDS011;5161;48.174;11.756;2023-05-10T09:22:57;1036.73;;;112.17;;
10232;SDS011;5161;48.174;11.756;2023-05-10T09:25:23;1022.93;;;114.37;;
10232;SDS011;5161;48.174;11.756;2023-05-10T09:27:48;1062.07;;;129.43;;
10232;SDS011;5161;48.174;11.756;2023-05-10T09:30:24;1083.80;;;164.17;;
10232;SDS011;5161;48.174;11.756;2023-05-10T09:32:51;1095.77;;;135.17;;
10232;SDS011;5161;48.174;11.756;2023-05-10T09:35:18;793.60;;;171.13;;
10232;SDS011;5161;48.174;11.756;2023-05-10T09:37:47;643.37;;;169.03;;
10232;SDS011;5161;48.174;11.756;2023-05-10T09:40:18;703.13;;;199.73;;
10232;SDS011;5161;48.174;11.756;2023-05-10T09:45:22;1075.20;;;176.23;;
10232;SDS011;5161;48.174;11.756;2023-05-10T09:47:48;818.40;;;188.03;;
10232;SDS011;5161;48.174;11.756;2023-05-10T09:50:14;677.20;;;181.03;;
10232;SDS011;5161;48.174;11.756;2023-05-10T09:52:53;624.43;;;196.47;;
10232;SDS011;5161;48.174;11.756;2023-05-10T09:55:24;707.17;;;173.87;;
10232;SDS011;5161;48.174;11.756;2023-05-10T09:58:00;1107.77;;;117.63;;
10232;SDS011;5161;48.174;11.756;2023-05-10T10:00:27;1087.30;;;106.33;;
10232;SDS011;5161;48.174;11.756;2023-05-10T10:02:56;1036.47;;;100.67;;
10232;SDS011;5161;48.174;11.756;2023-05-10T10:05:30;989.50;;;99.63;;
10232;SDS011;5161;48.174;11.756;2023-05-10T10:07:57;963.60;;;101.67;;
10232;SDS011;5161;48.174;11.756;2023-05-10T10:10:24;914.27;;;107.73;;
10232;SDS011;5161;48.174;11.756;2023-05-10T10:12:53;921.00;;;105.70;;
10232;SDS011;5161;48.174;11.756;2023-05-10T10:15:20;942.23;;;102.13;;
10232;SDS011;5161;48.174;11.756;2023-05-10T10:17:46;932.30;;;100.80;;
10232;SDS011;5161;48.174;11.756;2023-05-10T10:20:14;953.63;;;98.57;;
10232;SDS011;5161;48.174;11.756;2023-05-10T10:22:40;994.40;;;98.67;;
10232;SDS011;5161;48.174;11.756;2023-05-10T10:25:07;1019.60;;;99.90;;
10232;SDS011;5161;48.174;11.756;2023-05-10T10:30:13;1050.93;;;100.60;;
10232;SDS011;5161;48.174;11.756;2023-05-10T10:35:30;1086.50;;;115.00;;
10232;SDS011;5161;48.174;11.756;2023-05-10T10:37:56;1115.87;;;112.80;;
10232;SDS011;5161;48.174;11.756;2023-05-10T10:40:29;1134.80;;;125.57;;
10232;SDS011;5161;48.174;11.756;2023-05-10T10:42:56;1082.37;;;105.83;;
10232;SDS011;5161;48.174;11.756;2023-05-10T10:45:25;1045.20;;;97.73;;
10232;SDS011;5161;48.174;11.756;2023-05-10T10:48:19;1035.30;;;101.87;;
10232;SDS011;5161;48.174;11.756;2023-05-10T10:50:46;1039.57;;;101.30;;
10232;SDS011;5161;48.174;11.756;2023-05-10T10:53:12;1017.20;;;100.53;;
10232;SDS011;5161;48.174;11.756;2023-05-10T10:55:47;989.60;;;99.27;;
10232;SDS011;5161;48.174;11.756;2023-05-10T10:58:31;947.10;;;96.90;;
10232;SDS011;5161;48.174;11.756;2023-05-10T11:01:08;956.93;;;95.63;;
10232;SDS011;5161;48.174;11.756;2023-05-10T11:03:35;1011.10;;;95.70;;
10232;SDS011;5161;48.174;11.756;2023-05-10T11:06:00;1084.73;;;105.97;;
10232;SDS011;5161;48.174;11.756;2023-05-10T11:13:31;851.73;;;214.03;;
10232;SDS011;5161;48.174;11.756;2023-05-10T11:15:57;1157.87;;;116.80;;
10232;SDS011;5161;48.174;11.756;2023-05-10T11:18:25;1098.90;;;101.37;;
10232;SDS011;5161;48.174;11.756;2023-05-10T11:20:57;1089.00;;;99.10;;
10232;SDS011;5161;48.174;11.756;2023-05-10T11:26:07;1046.03;;;90.97;;
10232;SDS011;5161;48.174;11.756;2023-05-10T11:28:34;1043.13;;;94.13;;
10232;SDS011;5161;48.174;11.756;2023-05-10T11:31:06;1056.77;;;98.77;;
10232;SDS011;5161;48.174;11.756;2023-05-10T11:33:41;1067.77;;;95.47;;
10232;SDS011;5161;48.174;11.756;2023-05-10T11:36:14;1087.43;;;100.97;;
10232;SDS011;5161;48.174;11.756;2023-05-10T11:38:45;1084.47;;;99.03;;
10232;SDS011;5161;48.174;11.756;2023-05-10T11:41:11;1090.57;;;101.50;;
10232;SDS011;5161;48.174;11.756;2023-05-10T11:43:41;1144.83;;;119.53;;
10232;SDS011;5161;48.174;11.756;2023-05-10T11:46:11;1152.97;;;119.70;;
10232;SDS011;5161;48.174;11.756;2023-05-10T11:48:41;1074.60;;;98.73;;
10232;SDS011;5161;48.174;11.756;2023-05-10T11:51:07;1086.37;;;99.27;;
10232;SDS011;5161;48.174;11.756;2023-05-10T11:53:34;1050.13;;;92.70;;
10232;SDS011;5161;48.174;11.756;2023-05-10T11:56:06;1043.67;;;91.70;;
10232;SDS011;5161;48.174;11.756;2023-05-10T11:58:32;1050.90;;;94.37;;
10232;SDS011;5161;48.174;11.756;2023-05-10T12:00:59;1019.47;;;87.97;;
10232;SDS011;5161;48.174;11.756;2023-05-10T12:03:25;1021.67;;;91.43;;
10232;SDS011;5161;48.174;11.756;2023-05-10T12:05:51;1079.53;;;97.90;;
10232;SDS011;5161;48.174;11.756;2023-05-10T12:08:20;1114.27;;;111.93;;
10232;SDS011;5161;48.174;11.756;2023-05-10T12:10:48;1135.47;;;125.90;;
10232;SDS011;5161;48.174;11.756;2023-05-10T12:13:14;1133.60;;;118.67;;
10232;SDS011;5161;48.174;11.756;2023-05-10T12:15:40;1058.37;;;183.50;;
10232;SDS011;5161;48.174;11.756;2023-05-10T12:18:10;1160.27;;;128.33;;
10232;SDS011;5161;48.174;11.756;2023-05-10T12:20:37;1091.30;;;104.97;;
10232;SDS011;5161;48.174;11.756;2023-05-10T12:23:03;1033.70;;;97.87;;
10232;SDS011;5161;48.174;11.756;2023-05-10T12:25:31;995.83;;;106.57;;
10232;SDS011;5161;48.174;11.756;2023-05-10T12:27:58;971.97;;;105.20;;
10232;SDS011;5161;48.174;11.756;2023-05-10T12:30:26;949.00;;;110.60;;
10232;SDS011;5161;48.174;11.756;2023-05-10T12:32:53;905.47;;;110.43;;
10232;SDS011;5161;48.174;11.756;2023-05-10T12:35:24;898.60;;;115.30;;
10232;SDS011;5161;48.174;11.756;2023-05-10T12:37:50;780.73;;;103.57;;
10232;SDS011;5161;48.174;11.756;2023-05-10T12:40:16;773.00;;;104.47;;
10232;SDS011;5161;48.174;11.756;2023-05-10T12:42:42;816.70;;;106.70;;
10232;SDS011;5161;48.174;11.756;2023-05-10T12:45:09;906.23;;;112.70;;
10232;SDS011;5161;48.174;11.756;2023-05-10T12:47:35;961.67;;;107.50;;
10232;SDS011;5161;48.174;11.756;2023-05-10T12:50:02;920.10;;;112.67;;
10232;SDS011;5161;48.174;11.756;2023-05-10T12:52:28;928.33;;;113.33;;
10232;SDS011;5161;48.174;11.756;2023-05-10T12:54:54;891.43;;;115.37;;
10232;SDS011;5161;48.174;11.756;2023-05-10T12:57:20;836.63;;;108.70;;
10232;SDS011;5161;48.174;11.756;2023-05-10T12:59:46;840.67;;;108.70;;
10232;SDS011;5161;48.174;11.756;2023-05-10T13:02:12;845.50;;;112.20;;
10232;SDS011;5161;48.174;11.756;2023-05-10T13:04:39;828.10;;;105.93;;
10232;SDS011;5161;48.174;11.756;2023-05-10T13:07:08;863.63;;;113.40;;
10232;SDS011;5161;48.174;11.756;2023-05-10T13:09:34;834.50;;;110.40;;
10232;SDS011;5161;48.174;11.756;2023-05-10T13:12:00;831.90;;;111.00;;
10232;SDS011;5161;48.174;11.756;2023-05-10T13:14:26;765.40;;;101.60;;
10232;SDS011;5161;48.174;11.756;2023-05-10T13:16:51;760.07;;;102.33;;
10232;SDS011;5161;48.174;11.756;2023-05-10T13:19:17;679.80;;;94.10;;
10232;SDS011;5161;48.174;11.756;2023-05-10T13:21:43;762.83;;;101.70;;
10232;SDS011;5161;48.174;11.756;2023-05-10T13:24:12;643.70;;;92.37;;
10232;SDS011;5161;48.174;11.756;2023-05-10T13:26:41;848.00;;;109.53;;
10232;SDS011;5161;48.174;11.756;2023-05-10T13:29:08;872.13;;;109.40;;
10232;SDS011;5161;48.174;11.756;2023-05-10T13:31:33;892.70;;;114.33;;
10232;SDS011;5161;48.174;11.756;2023-05-10T13:34:00;915.63;;;103.07;;
10232;SDS011;5161;48.174;11.756;2023-05-10T13:36:26;955.83;;;107.43;;
10232;SDS011;5161;48.174;11.756;2023-05-10T13:38:52;949.23;;;105.40;;
10232;SDS011;5161;48.174;11.756;2023-05-10T13:41:17;955.87;;;108.17;;
10232;SDS011;5161;48.174;11.756;2023-05-10T13:43:43;995.83;;;105.93;;
10232;SDS011;5161;48.174;11.756;2023-05-10T13:46:08;989.13;;;102.67;;
10232;SDS011;5161;48.174;11.756;2023-05-10T13:48:34;954.97;;;109.67;;
10232;SDS011;5161;48.174;11.756;2023-05-10T13:51:01;948.03;;;116.67;;
10232;SDS011;5161;48.174;11.756;2023-05-10T13:53:27;960.43;;;111.80;;
10232;SDS011;5161;48.174;11.756;2023-05-10T13:55:52;967.77;;;101.70;;
10232;SDS011;5161;48.174;11.756;2023-05-10T13:58:18;946.40;;;108.83;;
10232;SDS011;5161;48.174;11.756;2023-05-10T14:00:44;916.23;;;114.20;;
10232;SDS011;5161;48.174;11.756;2023-05-10T14:03:09;914.10;;;110.73;;
10232;SDS011;5161;48.174;11.756;2023-05-10T14:05:35;899.27;;;111.43;;
10232;SDS011;5161;48.174;11.756;2023-05-10T14:08:01;913.93;;;111.73;;
10232;SDS011;5161;48.174;11.756;2023-05-10T14:10:27;923.43;;;115.27;;
10232;SDS011;5161;48.174;11.756;2023-05-10T14:12:53;934.67;;;114.27;;
10232;SDS011;5161;48.174;11.756;2023-05-10T14:15:18;932.40;;;122.73;;
10232;SDS011;5161;48.174;11.756;2023-05-10T14:17:44;887.07;;;119.30;;
10232;SDS011;5161;48.174;11.756;2023-05-10T14:20:10;720.50;;;99.27;;
10232;SDS011;5161;48.174;11.756;2023-05-10T14:22:36;663.13;;;89.17;;
10232;SDS011;5161;48.174;11.756;2023-05-10T14:25:01;734.13;;;99.23;;
10232;SDS011;5161;48.174;11.756;2023-05-10T14:27:27;618.47;;;89.27;;
10232;SDS011;5161;48.174;11.756;2023-05-10T14:29:54;652.07;;;91.23;;
10232;SDS011;5161;48.174;11.756;2023-05-10T14:32:19;631.27;;;90.87;;
10232;SDS011;5161;48.174;11.756;2023-05-10T14:34:45;714.83;;;98.17;;
10232;SDS011;5161;48.174;11.756;2023-05-10T14:37:11;721.80;;;97.30;;
10232;SDS011;5161;48.174;11.756;2023-05-10T14:39:38;689.87;;;97.10;;
10232;SDS011;5161;48.174;11.756;2023-05-10T14:42:04;610.07;;;88.23;;